createdAt,value
2018-12-18T00:00:56.638Z,32.43
2018-12-18T00:03:25.778Z,36.53
2018-12-18T00:05:54.760Z,30.07
2018-12-18T00:08:26.838Z,32.27
2018-12-18T00:11:01.893Z,31.30
2018-12-18T00:13:32.259Z,29.27
2018-12-18T00:16:01.400Z,31.10
2018-12-18T00:18:30.390Z,28.40
2018-12-18T00:20:59.461Z,36.30
2018-12-18T00:23:28.436Z,29.80
2018-12-18T00:25:57.407Z,30.10
2018-12-18T00:28:26.378Z,31.20
2018-12-18T00:30:55.434Z,30.03
2018-12-18T00:33:24.542Z,26.30
2018-12-18T00:35:53.532Z,27.03
2018-12-18T00:38:22.639Z,28.87
2018-12-18T00:40:51.613Z,30.37
2018-12-18T00:43:20.652Z,30.30
2018-12-18T00:45:49.995Z,33.83
2018-12-18T00:48:19.037Z,31.47
2018-12-18T00:50:48.053Z,28.33
2018-12-18T00:53:17.081Z,27.53
2018-12-18T00:55:46.233Z,32.90
2018-12-18T00:58:15.232Z,30.40
2018-12-18T01:00:44.365Z,29.77
2018-12-18T01:03:13.413Z,33.30
2018-12-18T01:05:42.468Z,30.80
2018-12-18T01:08:11.473Z,31.33
2018-12-18T01:10:40.667Z,29.20
2018-12-18T01:13:09.680Z,28.30
2018-12-18T01:15:38.654Z,31.70
2018-12-18T01:18:07.839Z,31.03
2018-12-18T01:20:36.843Z,28.33
2018-12-18T01:23:05.863Z,35.43
2018-12-18T01:25:34.836Z,30.67
2018-12-18T01:28:03.949Z,36.60
2018-12-18T01:30:32.951Z,32.63
2018-12-18T01:33:01.915Z,32.17
2018-12-18T01:35:30.975Z,31.40
2018-12-18T01:37:59.982Z,30.27
2018-12-18T01:40:29.290Z,37.87
2018-12-18T01:42:58.277Z,28.57
2018-12-18T01:45:27.272Z,32.43
2018-12-18T01:47:56.325Z,36.23
2018-12-18T01:50:25.468Z,39.07
2018-12-18T01:52:54.605Z,32.93
2018-12-18T01:55:23.673Z,31.43
2018-12-18T01:57:53.707Z,40.33
2018-12-18T02:00:22.889Z,38.70
2018-12-18T02:02:51.933Z,38.57
2018-12-18T02:05:21.191Z,32.87
2018-12-18T02:07:50.166Z,35.80
2018-12-18T02:10:19.221Z,33.20
2018-12-18T02:12:48.254Z,37.70
2018-12-18T02:15:17.251Z,33.63
2018-12-18T02:17:46.243Z,33.37
2018-12-18T02:20:15.237Z,30.60
2018-12-18T02:22:44.209Z,32.17
2018-12-18T02:25:13.195Z,33.57
2018-12-18T02:27:42.165Z,34.40
2018-12-18T02:30:11.140Z,38.10
2018-12-18T02:32:40.121Z,35.37
2018-12-18T02:35:09.091Z,38.90
2018-12-18T02:37:38.144Z,40.07
2018-12-18T02:40:07.582Z,36.40
2018-12-18T02:42:36.557Z,35.20
2018-12-18T02:45:06.154Z,36.33
2018-12-18T02:47:35.308Z,37.53
2018-12-18T02:50:04.880Z,36.90
2018-12-18T02:52:33.897Z,33.97
2018-12-18T02:55:03.075Z,38.00
2018-12-18T02:57:32.051Z,33.83
2018-12-18T03:00:01.041Z,33.60
2018-12-18T03:02:30.021Z,42.80
2018-12-18T03:04:58.991Z,35.90
2018-12-18T03:07:27.986Z,33.33
2018-12-18T03:09:56.980Z,35.37
2018-12-18T03:12:26.039Z,31.37
2018-12-18T03:14:55.080Z,34.83
2018-12-18T03:17:24.268Z,34.37
2018-12-18T03:19:53.401Z,34.53
2018-12-18T03:22:22.681Z,34.70
2018-12-18T03:24:51.669Z,30.97
2018-12-18T03:27:20.638Z,46.60
2018-12-18T03:29:49.619Z,33.13
2018-12-18T03:32:22.808Z,32.77
2018-12-18T03:34:51.825Z,36.43
2018-12-18T03:37:20.793Z,34.80
2018-12-18T03:39:49.885Z,35.97
2018-12-18T03:42:18.857Z,33.90
2018-12-18T03:44:47.833Z,35.53
2018-12-18T03:47:16.877Z,35.40
2018-12-18T03:49:45.951Z,37.10
2018-12-18T03:52:15.112Z,36.93
2018-12-18T03:54:44.134Z,36.40
2018-12-18T03:57:13.119Z,32.80
2018-12-18T03:59:42.173Z,40.37
2018-12-18T04:02:11.232Z,42.60
2018-12-18T04:04:40.303Z,34.20
2018-12-18T04:07:09.342Z,40.63
2018-12-18T04:09:38.355Z,39.00
2018-12-18T04:12:11.646Z,33.83
2018-12-18T04:14:40.641Z,36.20
2018-12-18T04:17:09.718Z,44.30
2018-12-18T04:19:38.789Z,40.53
2018-12-18T04:22:07.899Z,43.60
2018-12-18T04:24:36.859Z,35.93
2018-12-18T04:27:05.835Z,39.93
2018-12-18T04:29:34.927Z,35.40
2018-12-18T04:32:03.969Z,37.33
2018-12-18T04:34:32.957Z,35.67
2018-12-18T04:37:02.038Z,41.37
2018-12-18T04:39:31.136Z,38.53
2018-12-18T04:42:00.134Z,46.50
2018-12-18T04:44:29.124Z,34.73
2018-12-18T04:46:58.127Z,36.97
2018-12-18T04:49:27.139Z,33.07
2018-12-18T04:51:56.261Z,31.73
2018-12-18T04:54:25.241Z,30.63
2018-12-18T04:56:54.436Z,39.57
2018-12-18T04:59:23.423Z,34.43
2018-12-18T05:01:52.424Z,31.63
2018-12-18T05:04:21.389Z,35.47
2018-12-18T05:06:50.466Z,37.63
2018-12-18T05:09:19.536Z,31.13
2018-12-18T05:11:48.586Z,36.03
2018-12-18T05:14:17.748Z,30.97
2018-12-18T05:16:46.791Z,32.67
2018-12-18T05:19:15.792Z,27.73
2018-12-18T05:21:44.766Z,40.53
2018-12-18T05:24:13.714Z,32.27
2018-12-18T05:26:42.857Z,33.23
2018-12-18T05:29:11.990Z,29.13
2018-12-18T05:31:41.000Z,30.93
2018-12-18T05:34:10.053Z,28.33
2018-12-18T05:36:39.208Z,38.43
2018-12-18T05:39:08.180Z,29.23
2018-12-18T05:41:37.158Z,28.83
2018-12-18T05:44:06.653Z,27.30
2018-12-18T05:46:35.724Z,34.07
2018-12-18T05:49:04.876Z,31.53
2018-12-18T05:51:33.878Z,35.73
2018-12-18T05:54:02.862Z,34.80
2018-12-18T05:56:31.907Z,51.63
2018-12-18T05:59:00.921Z,29.97
2018-12-18T06:01:29.917Z,29.63
2018-12-18T06:03:58.908Z,31.87
2018-12-18T06:06:27.905Z,33.70
2018-12-18T06:08:57.026Z,31.17
2018-12-18T06:11:26.121Z,36.43
2018-12-18T06:13:55.147Z,33.43
2018-12-18T06:16:24.193Z,33.27
2018-12-18T06:18:53.174Z,32.30
2018-12-18T06:21:22.170Z,29.43
2018-12-18T06:23:51.723Z,41.47
2018-12-18T06:26:20.712Z,34.83
2018-12-18T06:28:49.694Z,32.53
2018-12-18T06:31:18.693Z,40.97
2018-12-18T06:33:47.682Z,34.20
2018-12-18T06:36:16.749Z,39.00
2018-12-18T06:38:45.734Z,31.40
2018-12-18T06:41:15.651Z,40.37
2018-12-18T06:43:44.680Z,32.83
2018-12-18T06:46:14.127Z,31.90
2018-12-18T06:48:43.668Z,35.40
2018-12-18T06:51:12.793Z,28.93
2018-12-18T06:53:41.798Z,32.50
2018-12-18T06:56:10.784Z,32.50
2018-12-18T06:58:39.870Z,33.90
2018-12-18T07:01:09.246Z,36.43
2018-12-18T07:03:38.263Z,33.27
2018-12-18T07:06:07.307Z,31.73
2018-12-18T07:08:36.335Z,34.17
2018-12-18T07:11:05.371Z,32.47
2018-12-18T07:13:34.387Z,33.37
2018-12-18T07:16:03.450Z,31.87
2018-12-18T07:18:32.409Z,37.00
2018-12-18T07:21:01.414Z,33.43
2018-12-18T07:23:30.392Z,32.07
2018-12-18T07:25:59.386Z,35.80
2018-12-18T07:28:28.548Z,39.93
2018-12-18T07:30:57.511Z,36.53
2018-12-18T07:33:26.571Z,30.50
2018-12-18T07:35:55.587Z,34.27
2018-12-18T07:38:24.634Z,29.67
2018-12-18T07:40:53.678Z,34.33
2018-12-18T07:43:22.721Z,37.73
2018-12-18T07:45:51.865Z,37.60
2018-12-18T07:48:21.010Z,42.37
2018-12-18T07:50:49.981Z,36.50
2018-12-18T07:53:19.109Z,47.83
2018-12-18T07:55:48.301Z,42.37
2018-12-18T07:58:17.378Z,44.57
2018-12-18T08:00:46.508Z,42.03
2018-12-18T08:03:15.489Z,34.63
2018-12-18T08:05:44.591Z,35.47
2018-12-18T08:08:13.612Z,35.77
2018-12-18T08:10:42.644Z,42.10
2018-12-18T08:13:11.788Z,33.80
2018-12-18T08:15:40.798Z,30.07
2018-12-18T08:18:09.773Z,30.13
2018-12-18T08:20:38.809Z,32.70
2018-12-18T08:23:07.964Z,37.67
2018-12-18T08:25:36.943Z,45.80
2018-12-18T08:28:05.933Z,38.20
2018-12-18T08:30:34.984Z,35.67
2018-12-18T08:33:04.060Z,36.27
2018-12-18T08:35:36.472Z,39.80
2018-12-18T08:38:04.102Z,46.23
2018-12-18T08:40:33.294Z,35.87
2018-12-18T08:43:02.399Z,38.67
2018-12-18T08:45:31.472Z,48.40
2018-12-18T08:48:00.473Z,34.60
2018-12-18T08:50:29.523Z,35.77
2018-12-18T08:52:58.699Z,41.07
2018-12-18T08:55:27.874Z,34.47
2018-12-18T08:57:56.938Z,40.60
2018-12-18T09:00:25.996Z,35.73
2018-12-18T09:02:55.136Z,34.30
2018-12-18T09:05:24.558Z,33.20
2018-12-18T09:07:53.615Z,38.63
2018-12-18T09:10:22.774Z,42.53
2018-12-18T09:12:51.881Z,37.53
2018-12-18T09:15:26.332Z,41.00
2018-12-18T09:17:55.510Z,40.97
2018-12-18T09:20:24.526Z,36.20
2018-12-18T09:22:53.522Z,33.03
2018-12-18T09:25:26.351Z,37.40
2018-12-18T09:27:55.415Z,31.13
2018-12-18T09:30:24.400Z,36.60
2018-12-18T09:32:53.419Z,28.70
2018-12-18T09:35:22.482Z,30.27
2018-12-18T09:37:55.715Z,29.07
2018-12-18T09:40:26.657Z,34.40
2018-12-18T09:43:01.298Z,35.83
2018-12-18T09:45:31.351Z,35.43
2018-12-18T09:48:00.327Z,36.30
2018-12-18T09:50:29.345Z,35.80
2018-12-18T09:52:58.441Z,35.77
2018-12-18T09:55:27.537Z,32.70
2018-12-18T09:57:57.686Z,35.03
2018-12-18T10:00:26.886Z,28.93
2018-12-18T10:02:55.961Z,34.53
2018-12-18T10:05:25.069Z,33.87
2018-12-18T10:07:54.062Z,31.50
2018-12-18T10:10:23.145Z,33.87
2018-12-18T10:12:55.513Z,37.70
2018-12-18T10:15:25.415Z,30.27
2018-12-18T10:17:54.411Z,36.83
2018-12-18T10:20:23.509Z,32.40
2018-12-18T10:22:52.579Z,35.47
2018-12-18T10:25:21.700Z,36.87
2018-12-18T10:27:50.713Z,32.90
2018-12-18T10:30:19.771Z,34.00
2018-12-18T10:32:48.810Z,39.50
2018-12-18T10:35:17.813Z,33.93
2018-12-18T10:37:46.856Z,31.67
2018-12-18T10:40:15.998Z,35.50
2018-12-18T10:42:45.260Z,28.47
2018-12-18T10:45:17.333Z,32.87
2018-12-18T10:47:46.375Z,31.93
2018-12-18T10:50:15.495Z,30.23
2018-12-18T10:52:44.524Z,30.83
2018-12-18T10:55:13.632Z,29.67
2018-12-18T10:57:42.891Z,38.20
2018-12-18T11:00:16.168Z,33.43
2018-12-18T11:02:45.325Z,38.67
2018-12-18T11:05:14.462Z,34.23
2018-12-18T11:07:43.576Z,35.07
2018-12-18T11:10:12.580Z,32.50
2018-12-18T11:12:43.521Z,32.17
2018-12-18T11:15:12.575Z,35.13
2018-12-18T11:17:41.606Z,39.57
2018-12-18T11:20:10.819Z,45.53
2018-12-18T11:22:39.901Z,31.57
2018-12-18T11:25:09.066Z,35.33
2018-12-18T11:27:38.229Z,36.13
2018-12-18T11:30:07.416Z,37.10
2018-12-18T11:32:36.514Z,34.37
2018-12-18T11:35:05.782Z,31.23
2018-12-18T11:37:34.924Z,36.77
2018-12-18T11:40:04.110Z,41.33
2018-12-18T11:42:33.203Z,37.03
2018-12-18T11:45:02.282Z,43.27
2018-12-18T11:47:31.377Z,39.47
2018-12-18T11:50:00.463Z,30.37
2018-12-18T11:52:29.467Z,37.90
2018-12-18T11:54:58.507Z,38.53
2018-12-18T11:57:27.523Z,36.77
2018-12-18T11:59:56.628Z,32.13
2018-12-18T12:02:25.730Z,38.70
2018-12-18T12:04:54.889Z,35.80
2018-12-18T12:07:23.876Z,32.20
2018-12-18T12:09:52.882Z,37.33
2018-12-18T12:12:22.039Z,44.63
2018-12-18T12:14:51.375Z,36.53
2018-12-18T12:17:20.716Z,41.23
2018-12-18T12:19:49.852Z,37.07
2018-12-18T12:22:18.874Z,39.20
2018-12-18T12:24:47.899Z,38.33
2018-12-18T12:27:39.294Z,39.50
2018-12-18T12:30:09.470Z,36.23
2018-12-18T12:32:39.355Z,40.27
2018-12-18T12:35:08.600Z,37.90
2018-12-18T12:37:37.597Z,34.17
2018-12-18T12:40:06.881Z,38.27
2018-12-18T12:42:35.918Z,28.80
2018-12-18T12:45:05.130Z,35.70
2018-12-18T12:47:34.262Z,38.30
2018-12-18T12:50:03.588Z,41.60
2018-12-18T12:52:33.746Z,32.57
2018-12-18T12:55:02.909Z,32.00
2018-12-18T12:57:31.898Z,25.87
2018-12-18T13:00:01.011Z,40.03
2018-12-18T13:02:30.060Z,33.03
2018-12-18T13:04:59.063Z,33.63
2018-12-18T13:07:28.083Z,29.70
2018-12-18T13:09:57.095Z,28.77
2018-12-18T13:12:26.124Z,34.53
2018-12-18T13:14:55.178Z,31.13
2018-12-18T13:17:24.246Z,35.77
2018-12-18T13:19:53.283Z,36.20
2018-12-18T13:22:22.301Z,37.20
2018-12-18T13:24:51.327Z,29.37
2018-12-18T13:27:20.325Z,33.07
2018-12-18T13:29:49.434Z,32.27
2018-12-18T13:35:14.210Z,21.43
2018-12-18T13:37:43.187Z,32.37
2018-12-18T13:40:12.285Z,30.33
2018-12-18T13:42:41.287Z,24.20
2018-12-18T13:45:17.243Z,23.40
2018-12-18T13:47:47.519Z,30.93
2018-12-18T13:50:16.669Z,26.90
2018-12-18T13:52:45.863Z,26.63
2018-12-18T13:55:16.151Z,21.90
2018-12-18T13:57:45.231Z,31.07
2018-12-18T14:00:14.334Z,24.70
2018-12-18T14:02:43.451Z,25.00
2018-12-18T14:05:12.401Z,27.83
2018-12-18T14:07:41.414Z,27.07
2018-12-18T14:10:10.527Z,24.70
2018-12-18T14:12:39.612Z,27.97
2018-12-18T14:15:09.139Z,28.03
2018-12-18T14:17:38.158Z,24.70
2018-12-18T14:20:07.379Z,25.60
2018-12-18T14:22:36.400Z,17.53
2018-12-18T14:25:05.696Z,30.27
2018-12-18T14:27:34.766Z,23.40
2018-12-18T14:30:04.259Z,21.10
2018-12-18T14:32:33.361Z,27.87
2018-12-18T14:35:04.044Z,22.00
2018-12-18T14:37:33.091Z,19.60
2018-12-18T14:40:02.080Z,21.50
2018-12-18T14:42:31.136Z,23.17
2018-12-18T14:45:00.213Z,23.20
2018-12-18T14:47:29.399Z,21.77
2018-12-18T14:49:58.501Z,26.30
2018-12-18T14:52:27.537Z,25.73
2018-12-18T14:54:56.551Z,25.50
2018-12-18T14:57:25.587Z,24.80
2018-12-18T14:59:54.618Z,22.97
2018-12-18T15:02:23.778Z,31.37
2018-12-18T15:04:52.791Z,17.67
2018-12-18T15:07:21.823Z,18.17
2018-12-18T15:09:50.802Z,23.50
2018-12-18T15:12:19.820Z,22.03
2018-12-18T15:14:48.878Z,17.50
2018-12-18T15:17:17.917Z,14.73
2018-12-18T15:19:46.953Z,18.43
2018-12-18T15:22:16.020Z,15.90
2018-12-18T15:24:45.212Z,16.20
2018-12-18T15:27:14.249Z,10.70
2018-12-18T15:29:43.324Z,14.87
2018-12-18T15:32:12.544Z,15.80
2018-12-18T15:34:41.546Z,18.77
2018-12-18T15:37:10.562Z,14.40
2018-12-18T15:39:39.657Z,14.00
2018-12-18T15:42:08.728Z,16.53
2018-12-18T15:44:38.322Z,18.23
2018-12-18T15:47:07.352Z,16.03
2018-12-18T15:49:36.417Z,18.07
2018-12-18T15:52:05.421Z,15.60
2018-12-18T15:54:34.508Z,21.70
2018-12-18T15:57:03.662Z,14.77
2018-12-18T15:59:32.825Z,14.07
2018-12-18T16:02:01.844Z,13.80
2018-12-18T16:04:30.922Z,10.27
2018-12-18T16:07:02.608Z,19.90
2018-12-18T16:09:31.608Z,13.73
2018-12-18T16:12:00.666Z,15.07
2018-12-18T16:14:29.724Z,16.43
2018-12-18T16:16:58.786Z,11.03
2018-12-18T16:19:27.878Z,11.53
2018-12-18T16:21:56.982Z,13.10
2018-12-18T16:24:26.111Z,12.97
2018-12-18T16:26:55.109Z,15.93
2018-12-18T16:29:24.321Z,13.60
2018-12-18T16:31:53.315Z,13.83
2018-12-18T16:34:22.532Z,12.77
2018-12-18T16:36:51.578Z,18.40
2018-12-18T16:39:20.611Z,10.87
2018-12-18T16:41:49.709Z,10.40
2018-12-18T16:44:19.370Z,15.80
2018-12-18T16:46:48.446Z,13.23
2018-12-18T16:49:18.336Z,21.40
2018-12-18T16:51:49.233Z,13.87
2018-12-18T16:54:18.791Z,13.37
2018-12-18T16:56:48.239Z,8.93
2018-12-18T16:59:17.342Z,9.17
2018-12-18T17:01:48.848Z,10.30
2018-12-18T17:04:17.859Z,10.70
2018-12-18T17:06:46.921Z,10.43
2018-12-18T17:09:15.939Z,15.47
2018-12-18T17:11:45.054Z,13.10
2018-12-18T17:14:14.072Z,14.60
2018-12-18T17:16:43.079Z,9.63
2018-12-18T17:19:14.164Z,13.87
2018-12-18T17:21:43.243Z,10.23
2018-12-18T17:24:12.279Z,9.00
2018-12-18T17:26:41.314Z,11.37
2018-12-18T17:29:10.335Z,10.53
2018-12-18T17:31:39.376Z,12.17
2018-12-18T17:34:08.368Z,12.40
2018-12-18T17:36:37.546Z,9.93
2018-12-18T17:39:07.984Z,11.07
2018-12-18T17:41:37.102Z,11.17
2018-12-18T17:44:06.204Z,14.77
2018-12-18T17:46:35.413Z,12.73
2018-12-18T17:49:04.611Z,8.17
2018-12-18T17:51:33.676Z,14.80
2018-12-18T17:54:03.463Z,12.53
2018-12-18T17:56:32.527Z,13.60
2018-12-18T17:59:02.591Z,10.53
2018-12-18T18:01:31.739Z,13.43
2018-12-18T18:04:00.819Z,20.47
2018-12-18T18:06:29.876Z,13.73
2018-12-18T18:08:59.054Z,11.57
2018-12-18T18:11:28.731Z,15.47
2018-12-18T18:13:57.852Z,22.97
2018-12-18T18:16:27.756Z,14.23
2018-12-18T18:18:56.842Z,18.80
2018-12-18T18:21:26.073Z,11.47
2018-12-18T18:23:55.282Z,13.90
2018-12-18T18:26:25.458Z,17.87
2018-12-18T18:28:54.666Z,22.50
2018-12-18T18:31:23.683Z,11.33
2018-12-18T18:33:52.739Z,11.57
2018-12-18T18:36:21.853Z,12.23
2018-12-18T18:38:51.846Z,18.83
2018-12-18T18:41:23.278Z,12.10
2018-12-18T18:43:53.354Z,12.50
2018-12-18T18:46:22.493Z,11.57
2018-12-18T18:48:54.531Z,11.53
2018-12-18T18:51:23.569Z,10.77
2018-12-18T18:53:52.609Z,14.33
2018-12-18T18:56:21.936Z,14.57
2018-12-18T18:58:51.133Z,12.60
2018-12-18T19:01:20.320Z,12.27
2018-12-18T19:03:54.033Z,10.37
2018-12-18T19:06:23.919Z,11.63
2018-12-18T19:08:52.971Z,16.13
2018-12-18T19:11:22.390Z,20.37
2018-12-18T19:13:51.529Z,8.67
2018-12-18T19:16:21.634Z,15.13
2018-12-18T19:18:51.264Z,11.87
2018-12-18T19:21:20.415Z,17.70
2018-12-18T19:24:01.019Z,11.10
2018-12-18T19:26:30.972Z,9.97
2018-12-18T19:29:00.083Z,13.53
2018-12-18T19:31:29.156Z,12.40
2018-12-18T19:33:58.264Z,8.17
2018-12-18T19:36:27.445Z,11.40
2018-12-18T19:38:56.595Z,12.20
2018-12-18T19:41:25.723Z,7.87
2018-12-18T19:43:54.933Z,14.33
2018-12-18T19:46:24.455Z,9.53
2018-12-18T19:48:53.726Z,11.23
2018-12-18T19:51:23.509Z,8.07
2018-12-18T19:53:52.644Z,11.87
2018-12-18T19:56:21.948Z,9.77
2018-12-18T19:58:51.128Z,9.47
2018-12-18T20:01:20.244Z,10.47
2018-12-18T20:03:49.686Z,11.40
2018-12-18T20:06:20.236Z,10.63
2018-12-18T20:08:50.695Z,13.33
2018-12-18T20:11:19.990Z,14.20
2018-12-18T20:13:50.391Z,12.47
2018-12-18T20:16:29.286Z,11.53
2018-12-18T20:19:02.530Z,13.93
2018-12-18T20:21:32.971Z,8.83
2018-12-18T20:24:08.264Z,16.47
2018-12-18T20:26:37.581Z,10.93
2018-12-18T20:29:12.920Z,8.40
2018-12-18T20:31:54.418Z,9.77
2018-12-18T20:34:28.211Z,9.97
2018-12-18T20:36:57.445Z,19.87
2018-12-18T20:39:27.987Z,9.70
2018-12-18T20:41:57.345Z,10.80
2018-12-18T20:44:26.690Z,14.97
2018-12-18T20:46:55.908Z,11.83
2018-12-18T20:49:25.443Z,10.90
2018-12-18T20:51:54.849Z,12.03
2018-12-18T20:54:24.316Z,13.40
2018-12-18T20:56:53.539Z,13.20
2018-12-18T20:59:27.794Z,14.40
2018-12-18T21:01:57.419Z,14.73
2018-12-18T21:04:26.733Z,18.70
2018-12-18T21:06:56.078Z,10.33
2018-12-18T21:09:25.853Z,15.47
2018-12-18T21:11:55.308Z,15.23
2018-12-18T21:14:25.047Z,17.30
2018-12-18T21:16:54.140Z,13.77
2018-12-18T21:19:23.835Z,15.97
2018-12-18T21:21:53.023Z,12.70
2018-12-18T21:24:22.632Z,15.23
2018-12-18T21:26:51.864Z,13.93
2018-12-18T21:29:21.584Z,14.03
2018-12-18T21:31:50.850Z,17.17
2018-12-18T21:34:20.175Z,12.33
2018-12-18T21:36:49.747Z,14.47
2018-12-18T21:39:19.994Z,19.33
2018-12-18T21:41:49.033Z,14.67
2018-12-18T21:44:18.137Z,11.57
2018-12-18T21:46:48.038Z,10.43
2018-12-18T21:49:17.452Z,15.03
2018-12-18T21:51:47.504Z,12.70
2018-12-18T21:54:16.577Z,12.87
2018-12-18T21:56:48.754Z,9.83
2018-12-18T21:59:18.175Z,10.80
2018-12-18T22:01:47.656Z,13.43
2018-12-18T22:04:17.528Z,11.10
2018-12-18T22:06:47.972Z,12.47
2018-12-18T22:09:17.028Z,12.00
2018-12-18T22:11:46.193Z,19.50
2018-12-18T22:14:19.915Z,10.27
2018-12-18T22:16:49.015Z,10.47
2018-12-18T22:19:18.206Z,12.33
2018-12-18T22:21:47.713Z,13.77
2018-12-18T22:24:17.575Z,10.63
2018-12-18T22:26:47.085Z,10.20
2018-12-18T22:29:16.135Z,8.83
2018-12-18T22:31:45.182Z,15.47
2018-12-18T22:34:14.319Z,12.30
2018-12-18T22:36:43.359Z,11.27
2018-12-18T22:39:12.432Z,13.77
2018-12-18T22:41:41.469Z,16.33
2018-12-18T22:44:10.430Z,12.77
2018-12-18T22:46:39.632Z,11.53
2018-12-18T22:49:08.708Z,10.83
2018-12-18T22:51:49.589Z,12.47
2018-12-18T22:57:12.348Z,10.30
2018-12-18T22:59:41.799Z,10.97
2018-12-18T23:02:17.204Z,11.03
2018-12-18T23:04:48.200Z,13.83
2018-12-18T23:07:17.293Z,10.57
2018-12-18T23:09:46.331Z,12.87
2018-12-18T23:12:15.451Z,9.93
2018-12-18T23:14:44.553Z,11.13
2018-12-18T23:17:14.558Z,14.63
2018-12-18T23:19:44.202Z,13.87
2018-12-18T23:22:14.632Z,18.10
2018-12-18T23:24:43.722Z,11.17
2018-12-18T23:27:12.944Z,12.93
2018-12-18T23:29:42.032Z,13.57
2018-12-18T23:32:11.051Z,15.90
2018-12-18T23:34:40.131Z,13.30
2018-12-18T23:37:09.806Z,12.67
2018-12-18T23:39:38.813Z,10.33
2018-12-18T23:42:07.937Z,14.00
2018-12-18T23:44:36.993Z,19.33
2018-12-18T23:47:06.090Z,12.07
2018-12-18T23:49:35.210Z,12.53
2018-12-18T23:52:04.495Z,14.23
2018-12-18T23:54:35.066Z,12.80
2018-12-18T23:57:04.284Z,21.03
2018-12-18T23:59:34.399Z,14.73
